Time;durP1;ratioP1;P1;durP2;ratioP2;P2;SDS_P1;SDS_P2;PMS_P1;PMS_P2;Temp;Humidity;BMP_temperature;BMP_pressure;BME280_temperature;BME280_humidity;BME280_pressure;Samples;Min_cycle;Max_cycle;Signal;HPM_P1;HPM_P2
2022/02/28 00:02:01;;;;;;;3.67;2.25;;;;;;;;;;5070786;28;20104;-56
2022/02/28 00:04:27;;;;;;;3.38;2.10;;;;;;;;;;5070336;28;20025;-55
2022/02/28 00:06:53;;;;;;;3.38;2.17;;;;;;;;;;5068762;28;20025;-55
2022/02/28 00:09:20;;;;;;;4.07;2.33;;;;;;;;;;5070051;28;20033;-55
2022/02/28 00:11:46;;;;;;;4.95;2.40;;;;;;;;;;5070730;28;20035;-56
2022/02/28 00:14:12;;;;;;;4.13;2.30;;;;;;;;;;5070553;28;20442;-55
2022/02/28 00:16:39;;;;;;;3.72;2.40;;;;;;;;;;5068404;28;20361;-55
2022/02/28 00:19:05;;;;;;;4.30;2.17;;;;;;;;;;5068762;28;20030;-55
2022/02/28 00:21:31;;;;;;;3.67;2.13;;;;;;;;;;5068391;28;20058;-55
2022/02/28 00:23:58;;;;;;;3.38;1.95;;;;;;;;;;5070392;28;20028;-54
2022/02/28 00:26:24;;;;;;;4.85;2.50;;;;;;;;;;5067959;28;20025;-55
2022/02/28 00:28:50;;;;;;;4.68;2.10;;;;;;;;;;5070176;28;20427;-55
2022/02/28 00:31:16;;;;;;;4.15;2.10;;;;;;;;;;5068740;28;20037;-55
2022/02/28 00:33:42;;;;;;;3.80;2.00;;;;;;;;;;5070440;28;20024;-55
2022/02/28 00:36:08;;;;;;;2.63;1.80;;;;;;;;;;5066600;28;20450;-55
2022/02/28 00:38:34;;;;;;;4.10;2.47;;;;;;;;;;5068249;28;20494;-55
2022/02/28 00:41:01;;;;;;;3.20;2.00;;;;;;;;;;5070060;28;20233;-55
2022/02/28 00:43:27;;;;;;;4.18;2.33;;;;;;;;;;5068992;28;20876;-54
2022/02/28 00:45:53;;;;;;;4.20;2.25;;;;;;;;;;5067957;28;20108;-55
2022/02/28 00:48:19;;;;;;;3.00;1.90;;;;;;;;;;5069495;28;20024;-55
2022/02/28 00:50:46;;;;;;;4.60;2.30;;;;;;;;;;5049922;28;20121;-55
2022/02/28 00:53:12;;;;;;;4.55;2.03;;;;;;;;;;5050029;28;20047;-54
2022/02/28 00:55:38;;;;;;;4.72;2.38;;;;;;;;;;5049621;28;20431;-55
2022/02/28 00:58:07;;;;;;;4.40;2.08;;;;;;;;;;5066955;28;20037;-54
2022/02/28 01:00:33;;;;;;;3.40;2.15;;;;;;;;;;5069407;28;20055;-55
2022/02/28 01:02:59;;;;;;;5.60;2.30;;;;;;;;;;5085911;28;20032;-55
2022/02/28 01:05:25;;;;;;;3.33;2.05;;;;;;;;;;5068042;28;20028;-55
2022/02/28 01:07:52;;;;;;;3.63;1.80;;;;;;;;;;5067593;28;20040;-55
2022/02/28 01:10:19;;;;;;;4.40;2.28;;;;;;;;;;5068706;28;20029;-55
2022/02/28 01:12:45;;;;;;;3.83;2.00;;;;;;;;;;5069016;28;20037;-55
2022/02/28 01:15:12;;;;;;;3.25;1.83;;;;;;;;;;5069665;28;20459;-55
2022/02/28 01:17:38;;;;;;;3.35;1.83;;;;;;;;;;5066747;28;20074;-55
2022/02/28 01:20:05;;;;;;;3.67;1.95;;;;;;;;;;5067457;28;20029;-55
2022/02/28 01:22:31;;;;;;;3.55;2.05;;;;;;;;;;5068916;28;20103;-54
2022/02/28 01:24:57;;;;;;;3.63;2.10;;;;;;;;;;5069116;28;20031;-55
2022/02/28 01:27:23;;;;;;;4.00;2.05;;;;;;;;;;5066723;28;20032;-54
2022/02/28 01:29:49;;;;;;;3.15;2.08;;;;;;;;;;5068774;28;20563;-54
2022/02/28 01:32:16;;;;;;;5.05;2.53;;;;;;;;;;5068710;28;20707;-54
2022/02/28 01:34:42;;;;;;;3.60;1.90;;;;;;;;;;5069069;28;20048;-55
2022/02/28 01:37:08;;;;;;;3.78;1.92;;;;;;;;;;5066842;28;20043;-55
2022/02/28 01:39:34;;;;;;;3.25;2.20;;;;;;;;;;5068435;28;20017;-55
2022/02/28 01:42:00;;;;;;;3.60;1.95;;;;;;;;;;5065192;28;20021;-54
2022/02/28 01:44:26;;;;;;;4.53;1.88;;;;;;;;;;5048536;28;20029;-55
2022/02/28 01:46:53;;;;;;;3.80;1.80;;;;;;;;;;5048580;28;20112;-55
2022/02/28 01:49:19;;;;;;;2.00;1.65;;;;;;;;;;5048323;28;20021;-54
2022/02/28 01:51:45;;;;;;;4.05;2.03;;;;;;;;;;5048874;28;20053;-54
2022/02/28 01:54:11;;;;;;;3.22;1.75;;;;;;;;;;5065966;28;20039;-55
2022/02/28 01:56:38;;;;;;;2.67;1.70;;;;;;;;;;5068149;28;20527;-55
2022/02/28 01:59:04;;;;;;;3.75;1.67;;;;;;;;;;5068262;28;20020;-55
2022/02/28 02:01:30;;;;;;;2.97;1.73;;;;;;;;;;5068068;28;20025;-55
2022/02/28 02:03:56;;;;;;;2.47;1.75;;;;;;;;;;5053867;28;20127;-54
2022/02/28 02:06:22;;;;;;;6.30;2.13;;;;;;;;;;5048171;28;20539;-55
2022/02/28 02:08:48;;;;;;;3.67;1.98;;;;;;;;;;5048114;28;20061;-55
2022/02/28 02:11:15;;;;;;;2.30;1.67;;;;;;;;;;5048625;28;20111;-55
2022/02/28 02:13:41;;;;;;;4.55;2.33;;;;;;;;;;5058035;28;20040;-55
2022/02/28 02:16:07;;;;;;;3.53;2.10;;;;;;;;;;5068114;28;20411;-55
2022/02/28 02:18:33;;;;;;;3.30;2.08;;;;;;;;;;5067936;28;20031;-55
2022/02/28 02:20:59;;;;;;;3.13;2.00;;;;;;;;;;5068160;28;20454;-55
2022/02/28 02:23:27;;;;;;;3.05;1.88;;;;;;;;;;5056186;28;20078;-55
2022/02/28 02:25:54;;;;;;;2.85;1.73;;;;;;;;;;5048348;28;20028;-55
2022/02/28 02:28:20;;;;;;;4.05;1.95;;;;;;;;;;5047774;28;20135;-55
2022/02/28 02:30:48;;;;;;;4.55;2.00;;;;;;;;;;5049247;28;20043;-55
2022/02/28 02:33:15;;;;;;;4.65;2.10;;;;;;;;;;5066452;28;20120;-54
2022/02/28 02:35:44;;;;;;;3.92;2.10;;;;;;;;;;5068346;28;20029;-55
2022/02/28 02:38:10;;;;;;;5.25;2.13;;;;;;;;;;5068176;28;20029;-55
2022/02/28 02:40:36;;;;;;;2.70;1.77;;;;;;;;;;5068024;28;20515;-55
2022/02/28 02:43:03;;;;;;;5.05;1.98;;;;;;;;;;5066044;28;20072;-55
2022/02/28 02:45:29;;;;;;;2.58;1.90;;;;;;;;;;5067604;28;20024;-54
2022/02/28 02:47:55;;;;;;;5.47;2.20;;;;;;;;;;5067920;28;20020;-55
2022/02/28 02:50:21;;;;;;;3.55;2.10;;;;;;;;;;5067712;28;20510;-55
2022/02/28 02:52:47;;;;;;;3.05;1.90;;;;;;;;;;5067730;28;20099;-55
2022/02/28 02:55:13;;;;;;;5.72;2.22;;;;;;;;;;5066281;28;20115;-55
2022/02/28 02:57:39;;;;;;;5.03;2.50;;;;;;;;;;5056494;28;20056;-55
2022/02/28 03:00:07;;;;;;;2.67;1.70;;;;;;;;;;5061512;28;20028;-54
2022/02/28 03:02:33;;;;;;;4.57;2.15;;;;;;;;;;5067565;28;20411;-55
2022/02/28 03:04:59;;;;;;;2.65;1.77;;;;;;;;;;5065781;28;20025;-54
2022/02/28 03:07:25;;;;;;;4.45;1.92;;;;;;;;;;5067390;28;20033;-54
2022/02/28 03:09:51;;;;;;;4.20;1.83;;;;;;;;;;5071492;28;20028;-55
2022/02/28 03:12:17;;;;;;;3.13;1.58;;;;;;;;;;5071229;28;20043;-54
2022/02/28 03:14:44;;;;;;;3.45;1.80;;;;;;;;;;5071879;28;20469;-56
2022/02/28 03:17:10;;;;;;;2.97;2.00;;;;;;;;;;5069721;28;20020;-55
2022/02/28 03:19:36;;;;;;;4.05;1.90;;;;;;;;;;5071279;28;20511;-54
2022/02/28 03:22:02;;;;;;;3.80;2.00;;;;;;;;;;5069809;28;20032;-55
2022/02/28 03:24:28;;;;;;;2.55;1.75;;;;;;;;;;5071088;28;20024;-55
2022/02/28 03:26:54;;;;;;;2.72;1.75;;;;;;;;;;5069323;28;20029;-54
2022/02/28 03:29:20;;;;;;;3.47;1.90;;;;;;;;;;5071010;28;20089;-54
2022/02/28 03:31:46;;;;;;;3.42;1.70;;;;;;;;;;5071441;28;20539;-54
2022/02/28 03:34:13;;;;;;;4.68;2.00;;;;;;;;;;5071428;28;20032;-54
2022/02/28 03:36:39;;;;;;;3.20;1.70;;;;;;;;;;5067488;28;20131;-55
2022/02/28 03:39:05;;;;;;;5.32;2.28;;;;;;;;;;5071125;28;20454;-55
2022/02/28 03:41:31;;;;;;;3.17;2.22;;;;;;;;;;5070545;28;20098;-55
2022/02/28 03:43:57;;;;;;;3.10;1.70;;;;;;;;;;5071148;28;20496;-54
2022/02/28 03:46:23;;;;;;;2.83;1.75;;;;;;;;;;5070906;28;20024;-54
2022/02/28 03:48:49;;;;;;;3.42;1.88;;;;;;;;;;5065021;28;20470;-55
2022/02/28 03:51:16;;;;;;;2.38;1.77;;;;;;;;;;5050828;28;20031;-55
2022/02/28 03:53:42;;;;;;;2.75;1.77;;;;;;;;;;5051161;28;20029;-54
2022/02/28 03:56:08;;;;;;;3.05;2.03;;;;;;;;;;5050791;28;20719;-55
2022/02/28 03:58:38;;;;;;;3.08;1.70;;;;;;;;;;5050438;28;20025;-55
2022/02/28 04:01:05;;;;;;;2.88;1.90;;;;;;;;;;5065821;28;20525;-54
2022/02/28 04:03:31;;;;;;;3.17;1.60;;;;;;;;;;5070364;28;20075;-55
2022/02/28 04:05:57;;;;;;;3.83;1.70;;;;;;;;;;5070682;28;20764;-55
2022/02/28 04:08:23;;;;;;;3.78;2.17;;;;;;;;;;5068696;28;20546;-55
2022/02/28 04:10:49;;;;;;;4.72;1.85;;;;;;;;;;5068584;28;20038;-55
2022/02/28 04:13:16;;;;;;;3.50;1.98;;;;;;;;;;5069887;28;20584;-55
2022/02/28 04:15:42;;;;;;;4.10;1.90;;;;;;;;;;5070842;28;20101;-54
2022/02/28 04:18:08;;;;;;;2.08;1.50;;;;;;;;;;5069464;28;20029;-53
2022/02/28 04:20:34;;;;;;;2.42;2.00;;;;;;;;;;5067824;28;20028;-55
2022/02/28 04:23:00;;;;;;;4.53;2.00;;;;;;;;;;5068632;28;20508;-55
2022/02/28 04:25:26;;;;;;;3.63;1.73;;;;;;;;;;5070009;28;20028;-54
2022/02/28 04:27:53;;;;;;;3.20;1.80;;;;;;;;;;5070405;28;20114;-55
2022/02/28 04:30:20;;;;;;;3.20;1.60;;;;;;;;;;5067843;28;20028;-54
2022/02/28 04:32:46;;;;;;;3.13;1.80;;;;;;;;;;5070257;28;20070;-54
2022/02/28 04:35:12;;;;;;;3.13;1.83;;;;;;;;;;5070349;28;20746;-55
2022/02/28 04:37:38;;;;;;;2.67;1.58;;;;;;;;;;5069143;28;20501;-55
2022/02/28 04:40:05;;;;;;;2.92;1.92;;;;;;;;;;5065785;28;20028;-55
2022/02/28 04:42:31;;;;;;;2.35;1.60;;;;;;;;;;5068934;28;20017;-55
2022/02/28 04:44:57;;;;;;;3.92;2.00;;;;;;;;;;5069540;28;20715;-55
2022/02/28 04:47:23;;;;;;;2.47;1.67;;;;;;;;;;5069526;28;20534;-55
2022/02/28 04:49:50;;;;;;;4.03;1.80;;;;;;;;;;5067993;28;20029;-55
2022/02/28 04:52:16;;;;;;;1.90;1.40;;;;;;;;;;5069433;28;20020;-55
2022/02/28 04:54:42;;;;;;;3.25;1.60;;;;;;;;;;5069950;28;20024;-55
2022/02/28 04:57:08;;;;;;;2.53;1.70;;;;;;;;;;5069728;28;20036;-54
2022/02/28 04:59:34;;;;;;;2.67;1.40;;;;;;;;;;5069197;28;20389;-55
2022/02/28 05:02:00;;;;;;;2.83;1.70;;;;;;;;;;5067748;28;20400;-55
2022/02/28 05:04:26;;;;;;;2.70;1.65;;;;;;;;;;5069151;28;20032;-54
2022/02/28 05:06:52;;;;;;;3.28;1.55;;;;;;;;;;5069498;28;20040;-55
2022/02/28 05:09:18;;;;;;;3.08;1.70;;;;;;;;;;5068983;28;20759;-55
2022/02/28 05:11:44;;;;;;;2.92;1.50;;;;;;;;;;5054712;28;20052;-56
2022/02/28 05:14:10;;;;;;;3.15;1.80;;;;;;;;;;5066235;28;20452;-55
2022/02/28 05:16:36;;;;;;;3.47;1.88;;;;;;;;;;5068766;28;20032;-55
2022/02/28 05:19:02;;;;;;;2.95;1.90;;;;;;;;;;5069061;28;20024;-55
2022/02/28 05:21:28;;;;;;;3.10;2.10;;;;;;;;;;5066709;28;20064;-55
2022/02/28 05:23:54;;;;;;;2.75;1.70;;;;;;;;;;5068989;28;20401;-55
2022/02/28 05:26:20;;;;;;;3.40;1.60;;;;;;;;;;5068711;28;20535;-54
2022/02/28 05:28:46;;;;;;;3.13;1.73;;;;;;;;;;5067406;28;20623;-55
2022/02/28 05:31:12;;;;;;;3.35;1.90;;;;;;;;;;5065607;28;20054;-55
2022/02/28 05:33:38;;;;;;;1.63;1.42;;;;;;;;;;5068764;28;20017;-55
2022/02/28 05:36:05;;;;;;;2.50;1.77;;;;;;;;;;5068878;28;20496;-55
2022/02/28 05:38:31;;;;;;;3.05;1.63;;;;;;;;;;5066866;28;20613;-54
2022/02/28 05:40:59;;;;;;;2.35;1.90;;;;;;;;;;5066868;28;20127;-55
2022/02/28 05:43:25;;;;;;;3.13;1.50;;;;;;;;;;5068580;28;20472;-54
2022/02/28 05:45:51;;;;;;;3.75;2.13;;;;;;;;;;5068851;28;20480;-55
2022/02/28 05:48:17;;;;;;;3.15;1.70;;;;;;;;;;5068402;28;20033;-55
2022/02/28 05:50:43;;;;;;;4.13;1.63;;;;;;;;;;5068364;28;20448;-55
2022/02/28 05:53:09;;;;;;;4.30;2.03;;;;;;;;;;5055247;28;20037;-53
2022/02/28 05:55:36;;;;;;;4.32;1.63;;;;;;;;;;5068562;28;20032;-55
2022/02/28 05:58:03;;;;;;;3.28;1.70;;;;;;;;;;5068351;28;20438;-55
2022/02/28 06:00:29;;;;;;;2.83;1.70;;;;;;;;;;5067960;28;20024;-54
2022/02/28 06:02:55;;;;;;;4.22;1.92;;;;;;;;;;5066470;28;20035;-54
2022/02/28 06:05:21;;;;;;;2.35;1.75;;;;;;;;;;5068195;28;20046;-55
2022/02/28 06:07:48;;;;;;;4.15;2.30;;;;;;;;;;5068270;28;20142;-55
2022/02/28 06:10:14;;;;;;;2.85;1.85;;;;;;;;;;5068638;28;20097;-55
2022/02/28 06:12:40;;;;;;;4.93;2.55;;;;;;;;;;5066279;28;20154;-55
2022/02/28 06:15:07;;;;;;;2.05;1.60;;;;;;;;;;5068398;28;20051;-55
2022/02/28 06:17:33;;;;;;;2.65;1.80;;;;;;;;;;5067823;28;20032;-55
2022/02/28 06:19:59;;;;;;;3.42;1.90;;;;;;;;;;5068119;28;20396;-55
2022/02/28 06:22:25;;;;;;;2.70;1.77;;;;;;;;;;5066013;28;20025;-55
2022/02/28 06:24:52;;;;;;;4.07;1.85;;;;;;;;;;5067824;28;20016;-54
2022/02/28 06:27:19;;;;;;;3.78;1.83;;;;;;;;;;5067973;28;20029;-55
2022/02/28 06:29:45;;;;;;;4.72;2.10;;;;;;;;;;5068192;28;20488;-55
2022/02/28 06:32:11;;;;;;;3.67;1.90;;;;;;;;;;5068294;28;20446;-54
2022/02/28 06:34:38;;;;;;;4.90;1.92;;;;;;;;;;5062610;28;20035;-54
2022/02/28 06:37:04;;;;;;;3.25;2.00;;;;;;;;;;5067698;28;20107;-56
2022/02/28 06:39:30;;;;;;;3.08;1.65;;;;;;;;;;5053976;28;20408;-54
2022/02/28 06:41:56;;;;;;;3.67;2.05;;;;;;;;;;5057297;28;20029;-53
2022/02/28 06:44:22;;;;;;;3.67;1.83;;;;;;;;;;5067698;28;20020;-55
2022/02/28 06:46:48;;;;;;;3.38;1.75;;;;;;;;;;5068227;28;20024;-56
2022/02/28 06:49:14;;;;;;;2.83;1.85;;;;;;;;;;5068304;28;20361;-55
2022/02/28 06:51:40;;;;;;;4.07;2.00;;;;;;;;;;5063866;28;20068;-56
2022/02/28 06:54:06;;;;;;;3.70;1.65;;;;;;;;;;5048029;28;20021;-56
2022/02/28 06:56:33;;;;;;;3.92;1.95;;;;;;;;;;5065337;28;20415;-56
2022/02/28 06:58:59;;;;;;;3.72;2.10;;;;;;;;;;5067837;28;20073;-55
2022/02/28 07:01:25;;;;;;;2.33;1.70;;;;;;;;;;5069900;28;20036;-55
2022/02/28 07:03:51;;;;;;;2.58;1.35;;;;;;;;;;5077183;28;20438;-55
2022/02/28 07:06:24;;;;;;;2.90;1.83;;;;;;;;;;5053788;28;20024;-56
2022/02/28 07:08:51;;;;;;;2.35;1.33;;;;;;;;;;5047791;28;20048;-55
2022/02/28 07:11:17;;;;;;;2.97;1.63;;;;;;;;;;5052055;28;20563;-56
2022/02/28 07:13:43;;;;;;;3.05;1.63;;;;;;;;;;5061753;28;20051;-56
2022/02/28 07:16:09;;;;;;;4.05;1.38;;;;;;;;;;5073012;28;20139;-56
2022/02/28 07:18:35;;;;;;;3.78;1.60;;;;;;;;;;5067506;28;20032;-56
2022/02/28 07:21:02;;;;;;;3.33;1.70;;;;;;;;;;5070211;28;20020;-58
2022/02/28 07:23:28;;;;;;;1.98;1.35;;;;;;;;;;5073298;28;20423;-57
2022/02/28 07:25:54;;;;;;;3.03;1.60;;;;;;;;;;5053375;28;20033;-56
2022/02/28 07:28:20;;;;;;;3.58;1.90;;;;;;;;;;5047109;28;20107;-55
2022/02/28 07:30:46;;;;;;;2.67;1.52;;;;;;;;;;5049971;28;20408;-56
2022/02/28 07:33:12;;;;;;;2.53;1.48;;;;;;;;;;5065897;28;20029;-56
2022/02/28 07:35:38;;;;;;;3.33;1.40;;;;;;;;;;5067342;28;20032;-56
2022/02/28 07:38:04;;;;;;;2.25;1.55;;;;;;;;;;5065302;28;20649;-56
2022/02/28 07:40:30;;;;;;;3.03;1.40;;;;;;;;;;5063658;28;20039;-56
2022/02/28 07:42:56;;;;;;;2.28;1.40;;;;;;;;;;5067562;28;20020;-58
2022/02/28 07:45:23;;;;;;;2.72;1.45;;;;;;;;;;5067291;28;20016;-56
2022/02/28 07:47:49;;;;;;;3.10;1.50;;;;;;;;;;5062446;28;20090;-56
2022/02/28 07:50:15;;;;;;;1.60;1.10;;;;;;;;;;5058017;28;20039;-53
2022/02/28 07:52:42;;;;;;;3.33;1.80;;;;;;;;;;5060548;28;20073;-52
2022/02/28 07:55:09;;;;;;;1.65;1.20;;;;;;;;;;5071167;28;20039;-54
2022/02/28 07:57:35;;;;;;;1.50;1.08;;;;;;;;;;5058760;28;20033;-54
2022/02/28 08:00:04;;;;;;;1.88;1.27;;;;;;;;;;5050450;28;20025;-54
2022/02/28 08:02:30;;;;;;;1.30;1.20;;;;;;;;;;5054648;28;20552;-53
2022/02/28 08:04:56;;;;;;;1.95;1.13;;;;;;;;;;5050571;28;20408;-54
2022/02/28 08:07:23;;;;;;;2.38;1.30;;;;;;;;;;5052596;28;20025;-54
2022/02/28 08:09:49;;;;;;;1.58;1.17;;;;;;;;;;5064444;28;20633;-55
2022/02/28 08:12:15;;;;;;;2.13;1.15;;;;;;;;;;5066521;28;20480;-54
2022/02/28 08:14:41;;;;;;;3.08;1.52;;;;;;;;;;5071752;28;20032;-54
2022/02/28 08:17:08;;;;;;;2.08;1.20;;;;;;;;;;5056244;28;20076;-55
2022/02/28 08:19:34;;;;;;;2.42;1.30;;;;;;;;;;5054967;28;20840;-53
2022/02/28 08:22:00;;;;;;;1.50;1.30;;;;;;;;;;5058914;28;20025;-54
2022/02/28 08:24:26;;;;;;;2.47;1.25;;;;;;;;;;5060802;28;20552;-54
2022/02/28 08:26:52;;;;;;;1.70;1.10;;;;;;;;;;5054054;28;20750;-54
2022/02/28 08:29:18;;;;;;;2.58;1.10;;;;;;;;;;5068038;28;20050;-54
2022/02/28 08:31:45;;;;;;;2.60;1.30;;;;;;;;;;5057393;28;20476;-56
2022/02/28 08:34:11;;;;;;;1.50;1.00;;;;;;;;;;5068656;28;20377;-55
2022/02/28 08:36:38;;;;;;;3.53;1.42;;;;;;;;;;5060226;28;20029;-54
2022/02/28 08:39:04;;;;;;;1.58;1.10;;;;;;;;;;5067919;28;20029;-55
2022/02/28 08:41:31;;;;;;;2.45;1.40;;;;;;;;;;5054361;28;20029;-55
2022/02/28 08:43:57;;;;;;;1.60;1.10;;;;;;;;;;5056507;28;20048;-54
2022/02/28 08:46:23;;;;;;;2.70;1.05;;;;;;;;;;5065742;28;20387;-55
2022/02/28 08:48:49;;;;;;;1.08;1.00;;;;;;;;;;5061870;28;20042;-54
2022/02/28 08:51:15;;;;;;;1.60;1.23;;;;;;;;;;5065986;28;20411;-54
2022/02/28 08:53:41;;;;;;;1.17;0.90;;;;;;;;;;5051355;28;20396;-54
2022/02/28 08:56:07;;;;;;;1.20;0.90;;;;;;;;;;5051071;28;20393;-54
2022/02/28 08:58:33;;;;;;;2.03;1.15;;;;;;;;;;5050083;28;20108;-55
2022/02/28 09:00:59;;;;;;;1.17;0.95;;;;;;;;;;5055738;28;20783;-55
2022/02/28 09:03:25;;;;;;;1.98;0.82;;;;;;;;;;5050173;28;20135;-54
2022/02/28 09:05:51;;;;;;;0.70;0.70;;;;;;;;;;5053263;28;20017;-52
2022/02/28 09:08:17;;;;;;;1.70;0.70;;;;;;;;;;5062483;28;20447;-54
2022/02/28 09:10:43;;;;;;;2.35;1.02;;;;;;;;;;5054270;28;20380;-54
2022/02/28 09:13:09;;;;;;;1.63;1.02;;;;;;;;;;5051275;28;20543;-55
2022/02/28 09:15:36;;;;;;;1.65;0.80;;;;;;;;;;5049662;28;20508;-54
2022/02/28 09:18:02;;;;;;;1.27;0.90;;;;;;;;;;5050002;28;20045;-54
2022/02/28 09:20:28;;;;;;;1.60;0.82;;;;;;;;;;5060003;28;20063;-54
2022/02/28 09:22:56;;;;;;;2.60;1.00;;;;;;;;;;5063714;28;20503;-54
2022/02/28 09:25:24;;;;;;;1.23;1.00;;;;;;;;;;5055332;28;20063;-54
2022/02/28 09:27:50;;;;;;;1.10;0.88;;;;;;;;;;5058389;28;20033;-54
2022/02/28 09:30:16;;;;;;;1.08;0.90;;;;;;;;;;5061281;28;20114;-55
2022/02/28 09:32:42;;;;;;;1.55;0.90;;;;;;;;;;5053678;28;20036;-54
2022/02/28 09:35:09;;;;;;;1.35;0.90;;;;;;;;;;5062756;28;20115;-55
2022/02/28 09:37:35;;;;;;;1.65;1.17;;;;;;;;;;5049038;28;20126;-56
2022/02/28 09:40:01;;;;;;;1.65;1.20;;;;;;;;;;5054008;28;20032;-54
2022/02/28 09:42:27;;;;;;;1.63;0.77;;;;;;;;;;5059440;28;20025;-54
2022/02/28 09:44:54;;;;;;;1.27;0.93;;;;;;;;;;5058377;28;20068;-54
2022/02/28 09:47:21;;;;;;;0.73;0.73;;;;;;;;;;5059173;28;20037;-54
2022/02/28 09:49:48;;;;;;;1.50;0.95;;;;;;;;;;5051596;28;20036;-53
2022/02/28 09:52:14;;;;;;;0.90;0.80;;;;;;;;;;5059958;28;20035;-54
2022/02/28 09:54:40;;;;;;;3.15;1.17;;;;;;;;;;5067323;28;20064;-54
2022/02/28 09:57:07;;;;;;;1.50;1.08;;;;;;;;;;5054328;28;20040;-53
2022/02/28 09:59:35;;;;;;;1.25;1.00;;;;;;;;;;5066593;28;20101;-55
2022/02/28 10:02:01;;;;;;;2.72;1.13;;;;;;;;;;5051616;28;20112;-55
2022/02/28 10:04:28;;;;;;;0.80;0.70;;;;;;;;;;5061301;28;20430;-55
2022/02/28 10:06:54;;;;;;;2.03;0.98;;;;;;;;;;5066073;28;20032;-54
2022/02/28 10:09:20;;;;;;;1.08;0.80;;;;;;;;;;5058046;28;20680;-54
2022/02/28 10:11:50;;;;;;;2.42;1.00;;;;;;;;;;5053117;28;20039;-54
2022/02/28 10:14:16;;;;;;;1.50;0.88;;;;;;;;;;5053105;28;20043;-54
2022/02/28 10:16:43;;;;;;;1.40;1.05;;;;;;;;;;5056452;28;20505;-54
2022/02/28 10:19:30;;;;;;;2.13;1.20;;;;;;;;;;5049343;28;20060;-55
2022/02/28 10:21:57;;;;;;;1.50;0.90;;;;;;;;;;5050764;28;20025;-55
2022/02/28 10:24:34;;;;;;;1.83;0.90;;;;;;;;;;5068030;28;20078;-54
2022/02/28 10:27:00;;;;;;;2.25;1.00;;;;;;;;;;5053663;28;20044;-53
2022/02/28 10:29:32;;;;;;;3.97;1.10;;;;;;;;;;5065112;28;20108;-53
2022/02/28 10:32:06;;;;;;;0.90;0.73;;;;;;;;;;5064279;28;20049;-54
2022/02/28 10:35:59;;;;;;;1.17;0.90;;;;;;;;;;5063658;28;20146;-54
2022/02/28 10:37:22;;;;;;;1.65;1.00;;;;;;;;;;5079046;28;20428;-54
2022/02/28 10:39:57;;;;;;;1.30;1.05;;;;;;;;;;5065015;28;20020;-54
2022/02/28 10:42:24;;;;;;;1.60;0.98;;;;;;;;;;5059479;28;20047;-54
2022/02/28 10:45:10;;;;;;;1.20;0.93;;;;;;;;;;5048714;28;20029;-54
2022/02/28 10:47:47;;;;;;;0.93;0.75;;;;;;;;;;5048390;28;20036;-54
2022/02/28 10:50:13;;;;;;;1.00;0.80;;;;;;;;;;5062696;28;20037;-54
2022/02/28 10:52:54;;;;;;;1.70;0.65;;;;;;;;;;5063100;28;20029;-54
2022/02/28 10:55:33;;;;;;;2.28;0.70;;;;;;;;;;5051382;28;20044;-55
2022/02/28 10:58:09;;;;;;;1.48;0.80;;;;;;;;;;5058000;28;20673;-54
2022/02/28 11:00:54;;;;;;;2.30;1.20;;;;;;;;;;5060692;28;20024;-54
2022/02/28 11:03:20;;;;;;;;;;;;;;;;;;5056253;28;20078;-54
2022/02/28 11:05:50;;;;;;;2.70;1.50;;;;;;;;;;5062950;28;20370;-54
2022/02/28 11:08:22;;;;;;;2.17;1.10;;;;;;;;;;5063270;28;20511;-54
2022/02/28 11:10:49;;;;;;;1.90;1.10;;;;;;;;;;5064240;28;20043;-54
2022/02/28 11:13:16;;;;;;;1.77;1.42;;;;;;;;;;5068204;28;20037;-54
2022/02/28 11:15:42;;;;;;;2.00;1.33;;;;;;;;;;5068541;28;20043;-55
2022/02/28 11:18:16;;;;;;;1.58;1.00;;;;;;;;;;5067983;28;20021;-55
2022/02/28 11:20:42;;;;;;;1.88;1.02;;;;;;;;;;5048000;28;20032;-54
2022/02/28 11:23:08;;;;;;;1.38;0.88;;;;;;;;;;5057303;28;20028;-54
2022/02/28 11:25:34;;;;;;;1.85;1.05;;;;;;;;;;5065977;28;20100;-55
2022/02/28 11:28:01;;;;;;;1.08;0.98;;;;;;;;;;5069129;28;20037;-54
2022/02/28 11:30:29;;;;;;;1.08;0.95;;;;;;;;;;5070191;28;20028;-54
2022/02/28 11:32:56;;;;;;;2.80;1.20;;;;;;;;;;5068350;28;20692;-54
2022/02/28 11:35:41;;;;;;;2.13;1.00;;;;;;;;;;5063938;28;20032;-55
2022/02/28 11:38:11;;;;;;;2.15;1.23;;;;;;;;;;5051927;28;20064;-55
2022/02/28 11:40:38;;;;;;;1.65;1.00;;;;;;;;;;5056701;28;20020;-55
2022/02/28 11:43:10;;;;;;;1.27;0.88;;;;;;;;;;5051974;28;20480;-55
2022/02/28 11:45:37;;;;;;;1.58;1.23;;;;;;;;;;5052163;28;20542;-55
2022/02/28 11:48:10;;;;;;;1.38;0.90;;;;;;;;;;5053162;28;20041;-55
2022/02/28 11:50:52;;;;;;;0.75;0.75;;;;;;;;;;5066440;28;20555;-58
2022/02/28 11:53:37;;;;;;;1.35;1.10;;;;;;;;;;5061911;28;20061;-57
2022/02/28 11:56:23;;;;;;;1.45;1.10;;;;;;;;;;5051165;28;20115;-55
2022/02/28 11:58:49;;;;;;;1.33;1.02;;;;;;;;;;5055656;28;20041;-55
2022/02/28 12:01:16;;;;;;;1.13;0.90;;;;;;;;;;5065018;28;20526;-55
2022/02/28 12:04:10;;;;;;;2.10;1.10;;;;;;;;;;5068446;28;20020;-55
2022/02/28 12:06:55;;;;;;;0.80;0.80;;;;;;;;;;5050276;28;20017;-55
2022/02/28 12:09:33;;;;;;;1.65;1.23;;;;;;;;;;5049756;28;20102;-55
2022/02/28 12:12:19;;;;;;;1.90;1.10;;;;;;;;;;5061194;28;20091;-55
2022/02/28 12:14:57;;;;;;;1.67;1.10;;;;;;;;;;5069425;28;20041;-56
2022/02/28 12:17:49;;;;;;;1.58;1.10;;;;;;;;;;5064874;28;20036;-56
2022/02/28 12:20:16;;;;;;;1.65;0.80;;;;;;;;;;5061061;28;20021;-55
2022/02/28 12:23:09;;;;;;;1.85;0.85;;;;;;;;;;5060458;28;20024;-56
2022/02/28 12:25:35;;;;;;;1.52;1.00;;;;;;;;;;5068931;28;20120;-54
2022/02/28 12:28:23;;;;;;;1.10;0.82;;;;;;;;;;5070015;28;20103;-55
2022/02/28 12:30:55;;;;;;;1.17;0.80;;;;;;;;;;5069177;28;20036;-55
2022/02/28 12:33:24;;;;;;;0.90;0.65;;;;;;;;;;5052467;28;20036;-56
2022/02/28 12:35:51;;;;;;;2.78;0.70;;;;;;;;;;5049827;28;20029;-56
2022/02/28 12:38:18;;;;;;;0.82;0.68;;;;;;;;;;5049405;28;20033;-56
2022/02/28 12:40:51;;;;;;;1.00;0.80;;;;;;;;;;5049000;28;20095;-56
2022/02/28 12:43:18;;;;;;;1.10;0.80;;;;;;;;;;5050764;28;20104;-56
2022/02/28 12:45:51;;;;;;;1.17;0.90;;;;;;;;;;5069028;28;20082;-55
2022/02/28 12:48:18;;;;;;;1.27;1.08;;;;;;;;;;5069219;28;20094;-56
2022/02/28 12:50:48;;;;;;;1.08;0.93;;;;;;;;;;5069711;28;20029;-55
2022/02/28 12:53:15;;;;;;;1.58;1.08;;;;;;;;;;5054007;28;20416;-55
2022/02/28 12:56:01;;;;;;;1.63;1.30;;;;;;;;;;5049576;28;20029;-55
2022/02/28 12:58:35;;;;;;;2.80;1.13;;;;;;;;;;5049672;28;20496;-55
2022/02/28 13:01:09;;;;;;;2.40;1.30;;;;;;;;;;5055329;28;20515;-55
2022/02/28 13:03:42;;;;;;;2.00;1.30;;;;;;;;;;5058257;28;20024;-54
2022/02/28 13:06:09;;;;;;;2.10;1.10;;;;;;;;;;5051555;28;20029;-54
2022/02/28 13:08:38;;;;;;;1.13;0.80;;;;;;;;;;5055701;28;20428;-55
2022/02/28 13:11:22;;;;;;;2.25;1.10;;;;;;;;;;5061841;28;20036;-55
2022/02/28 13:13:55;;;;;;;1.42;1.00;;;;;;;;;;5073861;28;20040;-55
2022/02/28 13:16:21;;;;;;;1.38;0.80;;;;;;;;;;5064591;28;20507;-55
2022/02/28 13:18:59;;;;;;;1.50;0.95;;;;;;;;;;5049934;28;20544;-55
2022/02/28 13:21:29;;;;;;;1.92;1.25;;;;;;;;;;5052132;28;20032;-55
2022/02/28 13:24:00;;;;;;;3.38;1.10;;;;;;;;;;5063863;28;20055;-55
2022/02/28 13:26:26;;;;;;;2.45;1.10;;;;;;;;;;5069741;28;20024;-55
2022/02/28 13:28:52;;;;;;;1.52;0.98;;;;;;;;;;5054475;28;20112;-55
2022/02/28 13:31:19;;;;;;;0.98;0.80;;;;;;;;;;5060223;28;20461;-55
2022/02/28 13:33:45;;;;;;;1.83;1.15;;;;;;;;;;5056939;28;20720;-56
2022/02/28 13:36:11;;;;;;;1.20;0.90;;;;;;;;;;5052692;28;20064;-55
2022/02/28 13:38:37;;;;;;;1.58;1.08;;;;;;;;;;5051541;28;20032;-55
2022/02/28 13:41:08;;;;;;;3.08;2.38;;;;;;;;;;5066109;28;20028;-56
2022/02/28 13:43:35;;;;;;;2.67;1.65;;;;;;;;;;5069226;28;20024;-56
2022/02/28 13:46:02;;;;;;;2.05;1.38;;;;;;;;;;5064927;28;20055;-55
2022/02/28 13:48:29;;;;;;;2.30;1.30;;;;;;;;;;5051559;28;20033;-55
2022/02/28 13:50:56;;;;;;;1.33;0.90;;;;;;;;;;5047974;28;20056;-55
2022/02/28 13:53:23;;;;;;;1.65;1.00;;;;;;;;;;5061949;28;20401;-55
2022/02/28 13:55:51;;;;;;;1.27;0.90;;;;;;;;;;5067710;28;20032;-55
2022/02/28 13:58:17;;;;;;;1.58;1.10;;;;;;;;;;5065361;28;20060;-56
2022/02/28 14:00:54;;;;;;;1.05;0.90;;;;;;;;;;5053736;28;20484;-56
2022/02/28 14:03:21;;;;;;;1.52;1.17;;;;;;;;;;5066795;28;20422;-57
2022/02/28 14:05:49;;;;;;;1.30;1.10;;;;;;;;;;5055286;28;20024;-56
2022/02/28 14:08:16;;;;;;;1.00;0.90;;;;;;;;;;5069509;28;20029;-56
2022/02/28 14:10:47;;;;;;;1.38;1.00;;;;;;;;;;5069141;28;20074;-56
2022/02/28 14:13:17;;;;;;;2.08;1.33;;;;;;;;;;5055073;28;20585;-57
2022/02/28 14:15:44;;;;;;;3.05;1.42;;;;;;;;;;5067035;28;20032;-56
2022/02/28 14:18:10;;;;;;;2.35;1.70;;;;;;;;;;5069205;28;20024;-56
2022/02/28 14:20:40;;;;;;;4.25;1.70;;;;;;;;;;5068685;28;20077;-56
2022/02/28 14:23:13;;;;;;;2.22;1.35;;;;;;;;;;5059749;28;20079;-57
2022/02/28 14:25:41;;;;;;;2.67;1.38;;;;;;;;;;5048650;28;20587;-56
2022/02/28 14:28:20;;;;;;;1.77;1.20;;;;;;;;;;5049110;28;20112;-56
2022/02/28 14:30:59;;;;;;;1.65;1.13;;;;;;;;;;5048524;28;20040;-57
2022/02/28 14:33:25;;;;;;;2.08;1.25;;;;;;;;;;5056086;28;20025;-58
2022/02/28 14:35:51;;;;;;;2.13;1.20;;;;;;;;;;5068655;28;20036;-58
2022/02/28 14:38:18;;;;;;;2.25;1.38;;;;;;;;;;5061570;28;20549;-58
2022/02/28 14:40:45;;;;;;;1.85;1.27;;;;;;;;;;5069081;28;20114;-58
2022/02/28 14:43:12;;;;;;;1.10;0.90;;;;;;;;;;5068836;28;20585;-58
2022/02/28 14:45:38;;;;;;;2.00;1.00;;;;;;;;;;5068514;28;20082;-58
2022/02/28 14:48:04;;;;;;;1.75;1.00;;;;;;;;;;5080775;28;20070;-58